createdAt,value
2019-05-18T00:01:17.692Z,99.90
2019-05-18T00:03:46.355Z,99.90
2019-05-18T00:06:14.912Z,99.90
2019-05-18T00:08:43.486Z,99.90
2019-05-18T00:11:12.064Z,99.90
2019-05-18T00:13:40.711Z,99.90
2019-05-18T00:16:09.341Z,99.90
2019-05-18T00:18:37.948Z,99.90
2019-05-18T00:21:06.629Z,99.90
2019-05-18T00:23:35.235Z,99.90
2019-05-18T00:26:04.227Z,99.90
2019-05-18T00:28:32.749Z,99.90
2019-05-18T00:31:01.338Z,99.90
2019-05-18T00:33:29.924Z,99.90
2019-05-18T00:35:58.500Z,99.90
2019-05-18T00:38:27.068Z,99.90
2019-05-18T00:40:55.644Z,99.90
2019-05-18T00:43:24.307Z,99.90
2019-05-18T00:45:52.916Z,99.90
2019-05-18T00:48:21.538Z,99.90
2019-05-18T00:50:50.211Z,99.90
2019-05-18T00:53:18.862Z,99.90
2019-05-18T00:55:47.404Z,99.90
2019-05-18T00:58:15.968Z,99.90
2019-05-18T01:00:44.589Z,99.90
2019-05-18T01:03:13.213Z,99.90
2019-05-18T01:05:41.757Z,99.90
2019-05-18T01:08:10.426Z,99.90
2019-05-18T01:10:38.955Z,99.90
2019-05-18T01:13:07.648Z,99.90
2019-05-18T01:15:36.219Z,99.90
2019-05-18T01:18:04.960Z,99.90
2019-05-18T01:20:33.596Z,99.90
2019-05-18T01:23:02.234Z,99.90
2019-05-18T01:25:30.873Z,99.90
2019-05-18T01:27:59.395Z,99.90
2019-05-18T01:30:28.088Z,99.90
2019-05-18T01:32:56.668Z,99.90
2019-05-18T01:35:25.276Z,99.90
2019-05-18T01:37:53.875Z,99.90
2019-05-18T01:40:22.569Z,99.90
2019-05-18T01:42:51.299Z,99.90
2019-05-18T01:45:19.929Z,99.90
2019-05-18T01:47:48.521Z,99.90
2019-05-18T01:50:17.303Z,99.90
2019-05-18T01:52:45.898Z,99.90
2019-05-18T01:55:14.529Z,99.90
2019-05-18T01:57:43.125Z,99.90
2019-05-18T02:00:12.184Z,99.90
2019-05-18T02:02:40.908Z,99.90
2019-05-18T02:05:09.897Z,99.90
2019-05-18T02:07:38.534Z,99.90
2019-05-18T02:10:08.980Z,99.90
2019-05-18T02:12:37.489Z,99.90
2019-05-18T02:15:06.726Z,99.90
2019-05-18T02:17:35.267Z,99.90
2019-05-18T02:20:05.379Z,99.90
2019-05-18T02:22:34.004Z,99.90
2019-05-18T02:25:03.095Z,99.90
2019-05-18T02:27:31.575Z,99.90
2019-05-18T02:30:00.153Z,99.90
2019-05-18T02:32:28.708Z,99.90
2019-05-18T02:34:57.291Z,99.90
2019-05-18T02:37:25.841Z,99.90
2019-05-18T02:39:55.804Z,99.90
2019-05-18T02:42:24.359Z,99.90
2019-05-18T02:44:53.008Z,99.90
2019-05-18T02:47:21.661Z,99.90
2019-05-18T02:49:50.215Z,99.90
2019-05-18T02:52:18.834Z,99.90
2019-05-18T02:54:47.489Z,99.90
2019-05-18T02:57:16.057Z,99.90
2019-05-18T02:59:44.721Z,99.90
2019-05-18T03:02:13.265Z,99.90
2019-05-18T03:04:41.946Z,99.90
2019-05-18T03:07:10.655Z,99.90
2019-05-18T03:09:39.271Z,99.90
2019-05-18T03:12:07.817Z,99.90
2019-05-18T03:14:36.402Z,99.90
2019-05-18T03:17:05.008Z,99.90
2019-05-18T03:19:33.672Z,99.90
2019-05-18T03:22:02.370Z,99.90
2019-05-18T03:24:30.960Z,99.90
2019-05-18T03:26:59.511Z,99.90
2019-05-18T03:29:28.040Z,99.90
2019-05-18T03:31:56.593Z,99.90
2019-05-18T03:34:25.216Z,99.90
2019-05-18T03:36:53.742Z,99.90
2019-05-18T03:39:22.259Z,99.90
2019-05-18T03:41:50.842Z,99.90
2019-05-18T03:44:19.448Z,99.90
2019-05-18T03:46:48.032Z,99.90
2019-05-18T03:49:26.019Z,99.90
2019-05-18T03:51:46.840Z,99.90
2019-05-18T03:54:15.379Z,99.90
2019-05-18T03:56:43.907Z,99.90
2019-05-18T03:59:12.490Z,99.90
2019-05-18T04:01:41.332Z,99.90
2019-05-18T04:04:12.413Z,99.90
2019-05-18T04:06:41.031Z,99.90
2019-05-18T04:09:09.593Z,99.90
2019-05-18T04:11:38.187Z,99.90
2019-05-18T04:14:08.308Z,99.90
2019-05-18T04:16:37.003Z,99.90
2019-05-18T04:19:05.543Z,99.90
2019-05-18T04:21:34.216Z,99.90
2019-05-18T04:24:02.708Z,99.90
2019-05-18T04:26:31.296Z,99.90
2019-05-18T04:28:59.894Z,99.90
2019-05-18T04:31:32.242Z,99.90
2019-05-18T04:33:58.749Z,99.90
2019-05-18T04:36:27.238Z,99.90
2019-05-18T04:38:55.748Z,99.90
2019-05-18T04:41:24.297Z,99.90
2019-05-18T04:43:52.830Z,99.90
2019-05-18T04:46:21.474Z,99.90
2019-05-18T04:48:50.120Z,99.90
2019-05-18T04:51:18.673Z,99.90
2019-05-18T04:53:47.279Z,99.90
2019-05-18T04:56:15.876Z,99.90
2019-05-18T04:58:44.476Z,99.90
2019-05-18T05:01:12.947Z,99.90
2019-05-18T05:03:41.584Z,99.90
2019-05-18T05:06:10.153Z,99.90
2019-05-18T05:08:38.688Z,99.90
2019-05-18T05:11:07.303Z,99.90
2019-05-18T05:13:35.910Z,99.90
2019-05-18T05:16:04.589Z,99.90
2019-05-18T05:18:33.383Z,99.90
2019-05-18T05:21:02.095Z,99.90
2019-05-18T05:23:30.623Z,99.90
2019-05-18T05:25:59.208Z,99.90
2019-05-18T05:28:27.708Z,99.90
2019-05-18T05:30:56.308Z,99.90
2019-05-18T05:33:24.861Z,99.90
2019-05-18T05:35:53.461Z,99.90
2019-05-18T05:38:22.026Z,99.90
2019-05-18T05:40:50.606Z,99.90
2019-05-18T05:43:19.182Z,99.90
2019-05-18T05:45:47.774Z,99.90
2019-05-18T05:48:16.317Z,99.90
2019-05-18T05:50:44.956Z,99.90
2019-05-18T05:53:13.536Z,99.90
2019-05-18T05:55:42.006Z,99.90
2019-05-18T05:58:10.832Z,99.90
2019-05-18T06:00:39.365Z,99.90
2019-05-18T06:03:08.000Z,99.90
2019-05-18T06:05:36.513Z,99.90
2019-05-18T06:08:05.123Z,99.90
2019-05-18T06:10:33.638Z,99.90
2019-05-18T06:13:02.219Z,99.90
2019-05-18T06:15:30.883Z,99.90
2019-05-18T06:17:59.466Z,99.90
2019-05-18T06:20:28.035Z,99.90
2019-05-18T06:22:56.713Z,99.90
2019-05-18T06:25:25.195Z,99.90
2019-05-18T06:27:53.794Z,99.90
2019-05-18T06:30:22.534Z,99.90
2019-05-18T06:32:51.184Z,99.90
2019-05-18T06:35:19.827Z,99.90
2019-05-18T06:37:48.549Z,99.90
2019-05-18T06:40:17.276Z,99.90
2019-05-18T06:42:45.893Z,99.90
2019-05-18T06:45:15.392Z,99.90
2019-05-18T06:47:43.939Z,99.90
2019-05-18T06:50:13.511Z,99.90
2019-05-18T06:52:42.160Z,99.90
2019-05-18T06:55:11.460Z,99.90
2019-05-18T06:57:40.535Z,99.90
2019-05-18T07:00:11.140Z,99.90
2019-05-18T07:02:39.698Z,99.90
2019-05-18T07:05:08.703Z,99.90
2019-05-18T07:07:37.420Z,99.90
2019-05-18T07:10:09.315Z,99.90
2019-05-18T07:12:37.915Z,99.90
2019-05-18T07:15:11.131Z,99.90
2019-05-18T07:17:39.810Z,99.90
2019-05-18T07:20:09.096Z,99.90
2019-05-18T07:22:37.754Z,99.90
2019-05-18T07:25:07.335Z,99.90
2019-05-18T07:27:36.126Z,99.90
2019-05-18T07:30:09.405Z,99.90
2019-05-18T07:32:38.077Z,99.90
2019-05-18T07:35:07.061Z,99.90
2019-05-18T07:37:35.952Z,99.90
2019-05-18T07:40:06.964Z,99.90
2019-05-18T07:42:35.621Z,99.90
2019-05-18T07:45:06.352Z,99.90
2019-05-18T07:47:34.935Z,99.90
2019-05-18T07:50:04.123Z,99.90
2019-05-18T07:52:32.739Z,99.90
2019-05-18T07:55:01.329Z,99.90
2019-05-18T07:57:29.867Z,99.90
2019-05-18T07:59:58.383Z,99.90
2019-05-18T08:02:26.861Z,99.90
2019-05-18T08:04:55.436Z,99.90
2019-05-18T08:07:24.093Z,99.90
2019-05-18T08:09:52.607Z,99.90
2019-05-18T08:12:21.280Z,99.90
2019-05-18T08:14:49.824Z,99.90
2019-05-18T08:17:18.622Z,99.90
2019-05-18T08:19:47.277Z,99.90
2019-05-18T08:22:15.891Z,99.90
2019-05-18T08:24:44.488Z,99.90
2019-05-18T08:27:13.045Z,99.90
2019-05-18T08:29:41.741Z,99.90
2019-05-18T08:32:10.303Z,99.90
2019-05-18T08:34:38.921Z,99.90
2019-05-18T08:37:07.524Z,99.90
2019-05-18T08:39:36.119Z,99.90
2019-05-18T08:42:04.865Z,99.90
2019-05-18T08:44:33.489Z,99.90
2019-05-18T08:47:02.278Z,99.90
2019-05-18T08:49:30.771Z,99.90
2019-05-18T08:52:07.960Z,99.90
2019-05-18T08:54:29.647Z,99.90
2019-05-18T08:56:58.207Z,99.90
2019-05-18T08:59:26.746Z,99.90
2019-05-18T09:01:55.310Z,99.90
2019-05-18T09:04:23.886Z,99.90
2019-05-18T09:06:52.474Z,99.90
2019-05-18T09:09:21.021Z,99.90
2019-05-18T09:11:49.643Z,99.90
2019-05-18T09:14:18.194Z,99.90
2019-05-18T09:16:46.769Z,99.90
2019-05-18T09:19:15.458Z,99.90
2019-05-18T09:21:44.024Z,99.90
2019-05-18T09:24:12.631Z,99.90
2019-05-18T09:26:47.788Z,99.90
2019-05-18T09:29:16.319Z,99.90
2019-05-18T09:31:51.883Z,99.90
2019-05-18T09:34:20.455Z,99.90
2019-05-18T09:37:02.668Z,99.90
2019-05-18T09:39:31.163Z,99.90
2019-05-18T09:42:06.460Z,99.90
2019-05-18T09:44:35.099Z,99.90
2019-05-18T09:47:17.431Z,99.90
2019-05-18T09:49:53.003Z,99.90
2019-05-18T09:52:44.835Z,99.90
2019-05-18T09:55:14.813Z,99.90
2019-05-18T09:57:56.694Z,99.90
2019-05-18T10:00:40.031Z,99.90
2019-05-18T10:03:14.679Z,99.90
2019-05-18T10:05:56.498Z,99.90
2019-05-18T10:08:31.696Z,99.90
2019-05-18T10:11:13.534Z,99.90
2019-05-18T10:13:48.410Z,99.90
2019-05-18T10:16:30.313Z,99.90
2019-05-18T10:19:11.984Z,99.90
2019-05-18T10:21:53.983Z,99.90
2019-05-18T10:24:28.573Z,99.90
2019-05-18T10:27:10.858Z,99.90
2019-05-18T10:29:46.813Z,99.90
2019-05-18T10:32:28.074Z,99.90
2019-05-18T10:35:03.775Z,99.90
2019-05-18T10:37:45.872Z,99.90
2019-05-18T10:40:22.767Z,99.90
2019-05-18T10:43:04.988Z,99.90
2019-05-18T10:45:46.644Z,99.90
2019-05-18T10:48:27.407Z,99.90
2019-05-18T10:51:16.287Z,99.50
2019-05-18T10:53:57.111Z,99.20
2019-05-18T10:56:46.097Z,99.90
2019-05-18T10:59:27.023Z,98.20
2019-05-18T11:02:16.459Z,94.60
2019-05-18T11:04:58.287Z,95.10
2019-05-18T11:07:46.711Z,94.70
2019-05-18T11:10:29.345Z,94.50
2019-05-18T11:13:17.617Z,94.40
2019-05-18T11:16:05.728Z,96.70
2019-05-18T11:18:48.282Z,94.30
2019-05-18T11:21:29.656Z,98.00
2019-05-18T11:24:05.277Z,94.40
2019-05-18T11:26:47.254Z,95.50
2019-05-18T11:29:23.714Z,93.80
2019-05-18T11:32:05.145Z,93.00
2019-05-18T11:34:39.989Z,91.20
2019-05-18T11:37:28.992Z,90.10
2019-05-18T11:40:04.462Z,90.90
2019-05-18T11:42:46.728Z,90.30
2019-05-18T11:45:23.627Z,87.40
2019-05-18T11:48:05.876Z,84.40
2019-05-18T11:50:40.691Z,84.40
2019-05-18T11:53:23.236Z,88.60
2019-05-18T11:56:04.839Z,86.20
2019-05-18T11:58:39.962Z,89.90
2019-05-18T12:01:21.597Z,90.50
2019-05-18T12:03:56.855Z,91.70
2019-05-18T12:06:38.885Z,93.10
2019-05-18T12:09:13.584Z,92.80
2019-05-18T12:11:55.349Z,92.50
2019-05-18T12:14:30.030Z,90.90
2019-05-18T12:17:12.083Z,90.20
2019-05-18T12:19:53.729Z,89.10
2019-05-18T12:22:34.974Z,86.00
2019-05-18T12:25:11.025Z,85.60
2019-05-18T12:27:52.720Z,87.60
2019-05-18T12:30:28.495Z,87.50
2019-05-18T12:33:10.109Z,89.50
2019-05-18T12:35:45.636Z,90.10
2019-05-18T12:38:27.312Z,91.60
2019-05-18T12:41:02.753Z,91.80
2019-05-18T12:43:44.423Z,92.00
2019-05-18T12:46:19.944Z,91.40
2019-05-18T12:49:02.479Z,92.80
2019-05-18T12:51:38.024Z,91.50
2019-05-18T12:54:29.224Z,92.30
2019-05-18T12:57:02.984Z,93.20
2019-05-18T12:59:38.573Z,94.00
2019-05-18T13:02:21.011Z,93.50
2019-05-18T13:04:56.517Z,93.30
2019-05-18T13:07:38.649Z,94.30
2019-05-18T13:10:16.394Z,93.50
2019-05-18T13:12:58.556Z,95.40
2019-05-18T13:15:33.536Z,94.80
2019-05-18T13:18:15.666Z,94.50
2019-05-18T13:20:58.245Z,93.90
2019-05-18T13:23:39.762Z,95.10
2019-05-18T13:26:15.171Z,95.20
2019-05-18T13:28:58.753Z,93.20
2019-05-18T13:31:40.127Z,93.30
2019-05-18T13:34:15.364Z,93.40
2019-05-18T13:36:57.522Z,91.70
2019-05-18T13:39:32.964Z,91.60
2019-05-18T13:42:15.796Z,90.70
2019-05-18T13:44:50.395Z,88.90
2019-05-18T13:47:32.220Z,90.70
2019-05-18T13:50:13.854Z,90.20
2019-05-18T13:53:01.779Z,91.50
2019-05-18T13:55:43.211Z,91.10
2019-05-18T13:58:31.104Z,89.80
2019-05-18T14:01:11.950Z,89.20
2019-05-18T14:04:00.789Z,88.10
2019-05-18T14:06:43.177Z,91.00
2019-05-18T14:09:31.397Z,90.60
2019-05-18T14:12:13.039Z,91.20
2019-05-18T14:15:01.295Z,92.90
2019-05-18T14:17:49.504Z,93.80
2019-05-18T14:20:31.544Z,93.00
2019-05-18T14:23:20.392Z,92.50
2019-05-18T14:26:01.439Z,92.50
2019-05-18T14:28:49.582Z,93.40
2019-05-18T14:31:31.429Z,91.30
2019-05-18T14:34:19.621Z,91.70
2019-05-18T14:37:01.332Z,92.20
2019-05-18T14:39:43.517Z,91.80
2019-05-18T14:42:18.458Z,92.50
2019-05-18T14:45:00.140Z,93.00
2019-05-18T14:47:41.615Z,92.90
2019-05-18T14:50:17.051Z,93.20
2019-05-18T14:53:05.651Z,92.70
2019-05-18T14:55:47.066Z,92.80
2019-05-18T14:58:35.088Z,92.20
2019-05-18T15:01:16.347Z,93.30
2019-05-18T15:04:04.095Z,92.80
2019-05-18T15:06:45.455Z,93.00
2019-05-18T15:09:33.342Z,93.10
2019-05-18T15:12:14.742Z,92.30
2019-05-18T15:15:03.819Z,91.50
2019-05-18T15:17:45.632Z,90.90
2019-05-18T15:20:33.711Z,86.90
2019-05-18T15:23:22.508Z,86.90
2019-05-18T15:26:03.957Z,84.20
2019-05-18T15:28:52.183Z,83.40
2019-05-18T15:31:33.898Z,82.90
2019-05-18T15:34:21.863Z,83.70
2019-05-18T15:37:03.605Z,85.50
2019-05-18T15:39:45.257Z,83.70
2019-05-18T15:42:27.530Z,85.70
2019-05-18T15:45:03.097Z,82.50
2019-05-18T15:47:46.784Z,84.60
2019-05-18T15:50:29.201Z,85.20
2019-05-18T15:53:11.776Z,86.20
2019-05-18T15:56:05.923Z,88.30
2019-05-18T15:58:49.370Z,86.10
2019-05-18T16:01:30.142Z,89.80
2019-05-18T16:04:17.973Z,87.60
2019-05-18T16:07:05.900Z,89.20
2019-05-18T16:09:46.999Z,87.10
2019-05-18T16:12:36.112Z,87.30
2019-05-18T16:15:20.357Z,86.70
2019-05-18T16:18:09.060Z,87.90
2019-05-18T16:20:50.670Z,88.00
2019-05-18T16:23:32.601Z,86.30
2019-05-18T16:26:20.766Z,88.70
2019-05-18T16:28:50.898Z,91.10
2019-05-18T16:31:25.788Z,91.50
2019-05-18T16:34:08.055Z,90.90
2019-05-18T16:36:42.628Z,92.20
2019-05-18T16:39:24.361Z,92.90
2019-05-18T16:41:59.537Z,92.80
2019-05-18T16:44:41.615Z,92.40
2019-05-18T16:47:16.881Z,93.00
2019-05-18T16:49:58.888Z,93.80
2019-05-18T16:52:33.523Z,93.50
2019-05-18T16:55:16.112Z,94.30
2019-05-18T16:57:50.730Z,93.40
2019-05-18T17:00:33.172Z,94.00
2019-05-18T17:03:08.761Z,94.90
2019-05-18T17:06:05.736Z,96.30
2019-05-18T17:08:27.930Z,97.30
2019-05-18T17:11:10.095Z,97.90
2019-05-18T17:13:44.755Z,99.00
2019-05-18T17:16:26.395Z,99.90
2019-05-18T17:19:08.169Z,99.90
2019-05-18T17:21:36.948Z,99.90
2019-05-18T17:24:12.705Z,99.90
2019-05-18T17:26:52.378Z,99.90
2019-05-18T17:29:17.896Z,99.90
2019-05-18T17:31:46.506Z,99.90
2019-05-18T17:34:22.158Z,99.90
2019-05-18T17:36:57.668Z,99.90
2019-05-18T17:39:33.379Z,99.90
2019-05-18T17:42:05.027Z,99.90
2019-05-18T17:44:38.621Z,99.90
2019-05-18T17:47:08.826Z,99.90
2019-05-18T17:49:44.391Z,99.90
2019-05-18T17:52:20.877Z,99.90
2019-05-18T17:55:10.093Z,99.90
2019-05-18T17:57:51.409Z,99.90
2019-05-18T18:00:39.751Z,99.90
2019-05-18T18:03:21.326Z,99.90
2019-05-18T18:06:09.538Z,99.90
2019-05-18T18:08:50.329Z,99.90
2019-05-18T18:11:39.570Z,99.90
2019-05-18T18:14:20.684Z,99.90
2019-05-18T18:17:09.407Z,99.90
2019-05-18T18:19:57.922Z,99.90
2019-05-18T18:22:38.824Z,99.90
2019-05-18T18:25:27.097Z,99.90
2019-05-18T18:28:07.876Z,99.90
2019-05-18T18:30:55.812Z,99.90
2019-05-18T18:33:36.803Z,99.90
2019-05-18T18:36:25.809Z,99.90
2019-05-18T18:39:00.931Z,99.90
2019-05-18T18:41:42.901Z,99.90
2019-05-18T18:44:18.299Z,99.90
2019-05-18T18:47:00.698Z,99.90
2019-05-18T18:49:35.710Z,99.90
2019-05-18T18:52:17.451Z,99.90
2019-05-18T18:55:05.131Z,99.90
2019-05-18T18:57:46.685Z,99.90
2019-05-18T19:00:34.672Z,99.90
2019-05-18T19:03:15.647Z,99.90
2019-05-18T19:06:04.019Z,99.90
2019-05-18T19:08:46.520Z,99.90
2019-05-18T19:11:35.621Z,99.90
2019-05-18T19:14:18.358Z,99.90
2019-05-18T19:17:06.138Z,99.90
2019-05-18T19:19:47.604Z,99.90
2019-05-18T19:22:35.467Z,99.90
2019-05-18T19:25:18.449Z,99.90
2019-05-18T19:28:06.908Z,99.90
2019-05-18T19:30:54.289Z,99.90
2019-05-18T19:33:35.274Z,99.90
2019-05-18T19:36:22.554Z,99.90
2019-05-18T19:38:57.141Z,99.90
2019-05-18T19:41:39.324Z,99.90
2019-05-18T19:44:14.218Z,99.90
2019-05-18T19:46:55.801Z,99.90
2019-05-18T19:49:30.830Z,99.90
2019-05-18T19:52:12.942Z,99.90
2019-05-18T19:54:48.475Z,99.90
2019-05-18T19:57:30.116Z,99.90
2019-05-18T20:00:04.930Z,99.90
2019-05-18T20:02:46.665Z,99.90
2019-05-18T20:05:22.167Z,99.90
2019-05-18T20:08:03.823Z,99.90
2019-05-18T20:10:45.929Z,99.90
2019-05-18T20:13:21.106Z,99.90
2019-05-18T20:16:03.347Z,99.90
2019-05-18T20:18:38.168Z,99.90
2019-05-18T20:21:20.377Z,99.90
2019-05-18T20:23:55.061Z,99.90
2019-05-18T20:26:36.654Z,99.90
2019-05-18T20:29:11.619Z,99.90
2019-05-18T20:31:53.828Z,99.90
2019-05-18T20:34:29.608Z,99.90
2019-05-18T20:37:11.571Z,99.90
2019-05-18T20:39:54.307Z,99.90
2019-05-18T20:42:37.678Z,99.90
2019-05-18T20:45:13.094Z,99.90
2019-05-18T20:47:55.810Z,99.90
2019-05-18T20:50:31.112Z,99.90
2019-05-18T20:53:13.031Z,99.90
2019-05-18T20:55:53.870Z,99.90
2019-05-18T20:58:41.523Z,99.90
2019-05-18T21:01:23.245Z,99.90
2019-05-18T21:04:11.314Z,99.90
2019-05-18T21:06:59.348Z,99.90
2019-05-18T21:09:40.941Z,99.90
2019-05-18T21:12:28.729Z,99.90
2019-05-18T21:15:12.326Z,99.90
2019-05-18T21:18:00.214Z,99.90
2019-05-18T21:20:42.620Z,99.90
2019-05-18T21:23:24.307Z,99.90
2019-05-18T21:25:58.981Z,99.90
2019-05-18T21:28:54.768Z,99.90
2019-05-18T21:31:17.654Z,99.90
2019-05-18T21:33:59.324Z,99.90
2019-05-18T21:36:34.281Z,99.90
2019-05-18T21:39:22.319Z,99.90
2019-05-18T21:42:03.771Z,99.90
2019-05-18T21:44:38.496Z,99.90
2019-05-18T21:47:20.599Z,99.90
2019-05-18T21:49:55.553Z,99.90
2019-05-18T21:52:37.297Z,99.90
2019-05-18T21:55:13.971Z,99.90
2019-05-18T21:58:01.783Z,99.90
2019-05-18T22:00:44.096Z,99.90
2019-05-18T22:03:32.061Z,99.90
2019-05-18T22:06:13.505Z,99.90
2019-05-18T22:09:01.309Z,99.90
2019-05-18T22:11:49.335Z,99.90
2019-05-18T22:14:30.532Z,99.90
2019-05-18T22:17:18.622Z,99.90
2019-05-18T22:19:59.316Z,99.90
2019-05-18T22:22:47.084Z,99.90
2019-05-18T22:25:27.881Z,99.90
2019-05-18T22:28:15.647Z,99.90
2019-05-18T22:30:57.316Z,99.90
2019-05-18T22:33:45.911Z,99.90
2019-05-18T22:36:27.805Z,99.90
2019-05-18T22:39:09.793Z,99.90
2019-05-18T22:41:44.974Z,99.90
2019-05-18T22:44:26.416Z,99.90
2019-05-18T22:47:08.339Z,99.90
2019-05-18T22:49:43.850Z,99.90
2019-05-18T22:52:25.303Z,99.90
2019-05-18T22:55:00.884Z,99.90
2019-05-18T22:57:48.898Z,99.90
2019-05-18T23:00:30.478Z,99.90
2019-05-18T23:03:19.107Z,99.90
2019-05-18T23:06:00.047Z,99.90
2019-05-18T23:08:48.744Z,99.90
2019-05-18T23:11:30.383Z,99.90
2019-05-18T23:14:17.972Z,99.90
2019-05-18T23:17:05.330Z,99.90
2019-05-18T23:19:47.621Z,99.90
2019-05-18T23:22:29.885Z,99.90
2019-05-18T23:25:04.923Z,99.90
2019-05-18T23:27:46.457Z,99.90
2019-05-18T23:30:23.206Z,99.90
2019-05-18T23:33:05.225Z,99.90
2019-05-18T23:35:40.584Z,99.90
2019-05-18T23:38:22.869Z,99.90
2019-05-18T23:40:58.339Z,99.90
2019-05-18T23:43:40.257Z,99.90
2019-05-18T23:46:15.031Z,99.90
2019-05-18T23:49:08.717Z,99.90
2019-05-18T23:51:33.119Z,99.90
2019-05-18T23:54:14.786Z,99.90
2019-05-18T23:56:49.294Z,99.90
2019-05-18T23:59:37.442Z,99.90
